createdAt,value
2023-02-02T04:02:03.870Z,99335.47
2023-02-02T04:05:13.450Z,99344.00
2023-02-02T04:08:23.497Z,99347.00
2023-02-02T04:11:33.212Z,99348.66
2023-02-02T04:14:42.931Z,99353.47
2023-02-02T04:17:53.707Z,99353.16
2023-02-02T04:21:03.371Z,99358.09
2023-02-02T04:24:14.167Z,99355.13
2023-02-02T04:27:24.030Z,99349.56
2023-02-02T04:30:33.686Z,99344.78
2023-02-02T04:33:44.666Z,99351.22
2023-02-02T04:36:54.213Z,99359.63
2023-02-02T04:40:04.124Z,99367.13
2023-02-02T04:43:14.248Z,99368.94
2023-02-02T04:46:23.866Z,99375.84
2023-02-02T04:49:34.738Z,99383.34
2023-02-02T04:52:44.409Z,99387.53
2023-02-02T04:55:53.989Z,99387.25
2023-02-02T04:59:03.614Z,99387.53
2023-02-02T05:02:13.190Z,99385.44
2023-02-02T05:05:24.450Z,99381.94
2023-02-02T05:08:34.711Z,99386.75
2023-02-02T05:11:45.003Z,99404.63
2023-02-02T05:14:54.623Z,99409.72
2023-02-02T05:18:04.402Z,99401.78
2023-02-02T05:21:15.303Z,99402.53
2023-02-02T05:24:24.959Z,99410.34
2023-02-02T05:27:35.069Z,99411.06
2023-02-02T05:30:44.806Z,99416.31
2023-02-02T05:33:54.335Z,99408.78
2023-02-02T05:37:05.306Z,99416.31
2023-02-02T05:40:15.180Z,99421.13
2023-02-02T05:43:26.796Z,99420.09
2023-02-02T05:46:36.326Z,99429.25
2023-02-02T05:49:45.926Z,99426.69
2023-02-02T05:52:56.896Z,99429.69
2023-02-02T05:56:06.833Z,99442.25
2023-02-02T05:59:17.330Z,99424.72
2023-02-02T07:46:52.229Z,99484.81
2023-02-02T07:50:01.849Z,99472.09
2023-02-02T07:53:11.664Z,99475.53
2023-02-02T07:56:23.727Z,99493.09
2023-02-02T07:59:33.627Z,99502.56
2023-02-02T08:02:44.551Z,99501.06
2023-02-02T08:05:59.823Z,99502.25
2023-02-02T08:09:11.994Z,99505.28
2023-02-02T08:12:24.814Z,99495.41
2023-02-02T08:15:35.706Z,99499.63
2023-02-02T08:18:46.945Z,99495.88
2023-02-02T08:21:56.504Z,99478.75
2023-02-02T08:25:06.713Z,99481.94
2023-02-02T08:28:16.325Z,99470.53
2023-02-02T08:31:29.260Z,99466.63
2023-02-02T08:34:40.826Z,99483.75
2023-02-02T08:37:50.559Z,99490.38
2023-02-02T08:41:05.587Z,99498.78
2023-02-02T08:44:18.690Z,99494.59
2023-02-02T08:47:30.077Z,99509.59
2023-02-02T08:50:41.349Z,99498.16
2023-02-02T08:53:50.914Z,99492.16
2023-02-02T08:57:00.624Z,99479.22
2023-02-02T09:00:11.683Z,99480.41
2023-02-02T09:03:21.386Z,99474.97
2023-02-02T09:06:40.266Z,99481.25
2023-02-02T09:09:58.201Z,99495.72
2023-02-02T09:13:07.758Z,99489.09
2023-02-02T09:16:20.089Z,99480.97
2023-02-02T09:19:31.267Z,99495.41
2023-02-02T09:22:42.828Z,99491.91
2023-02-02T09:25:55.184Z,99488.91
2023-02-02T09:29:07.087Z,99510.41
2023-02-02T09:32:16.662Z,99510.88
2023-02-02T09:35:26.726Z,99514.31
2023-02-02T09:38:38.410Z,99527.59
2023-02-02T09:42:03.694Z,99542.63
2023-02-02T09:45:23.456Z,99543.13
2023-02-02T09:48:42.537Z,99544.31
2023-02-02T09:51:56.998Z,99535.13
2023-02-02T09:55:16.312Z,99538.75
2023-02-02T09:58:30.195Z,99533.06
2023-02-02T10:01:45.193Z,99548.25
2023-02-02T10:05:02.675Z,99551.97
2023-02-02T10:08:33.898Z,99551.38
2023-02-02T10:11:51.561Z,99573.63
2023-02-02T10:15:06.390Z,99564.31
2023-02-02T10:18:21.857Z,99560.66
2023-02-02T10:21:40.281Z,99566.03
2023-02-02T10:24:49.949Z,99565.94
2023-02-02T10:28:18.569Z,99571.69
2023-02-02T10:31:42.523Z,99568.03
2023-02-02T10:35:13.504Z,99578.88
2023-02-02T10:38:37.560Z,99571.63
2023-02-02T10:41:59.683Z,99580.66
2023-02-02T10:45:17.010Z,99569.94
2023-02-02T10:48:32.658Z,99568.25
2023-02-02T10:51:46.859Z,99578.34
2023-02-02T10:55:05.032Z,99577.88
2023-02-02T10:58:25.360Z,99583.50
2023-02-02T11:01:36.479Z,99589.22
2023-02-02T11:04:57.847Z,99587.41
2023-02-02T11:08:16.955Z,99588.56
2023-02-02T11:11:31.835Z,99583.41
2023-02-02T11:14:46.352Z,99580.44
2023-02-02T11:17:57.466Z,99586.00
2023-02-02T11:21:19.627Z,99588.94
2023-02-02T11:24:31.022Z,99582.56
2023-02-02T11:27:43.162Z,99593.31
2023-02-02T11:30:54.372Z,99590.56
2023-02-02T11:34:20.493Z,99594.22
2023-02-02T11:37:32.982Z,99585.16
2023-02-02T11:40:45.093Z,99586.19
2023-02-02T11:43:56.712Z,99592.91
2023-02-02T11:47:06.853Z,99585.38
2023-02-02T11:50:24.181Z,99569.88
2023-02-02T11:53:36.768Z,99572.59
2023-02-02T11:56:51.068Z,99561.69
2023-02-02T12:00:16.971Z,99571.22
2023-02-02T12:03:32.009Z,99568.31
2023-02-02T12:06:43.017Z,99562.97
2023-02-02T12:09:53.156Z,99574.41
2023-02-02T12:16:32.630Z,99572.91
2023-02-02T12:19:56.340Z,99570.66
2023-02-02T12:23:24.213Z,99557.59
2023-02-02T12:26:36.921Z,99560.94
2023-02-02T12:30:03.465Z,99555.38
2023-02-02T12:33:24.296Z,99553.97
2023-02-02T12:36:48.445Z,99560.91
2023-02-02T12:40:18.333Z,99561.00
2023-02-02T12:43:38.737Z,99566.34
2023-02-02T12:47:00.943Z,99550.63
2023-02-02T12:50:23.957Z,99545.59
2023-02-02T12:53:43.192Z,99546.38
2023-02-02T12:57:03.255Z,99544.56
2023-02-02T13:00:28.272Z,99557.44
2023-02-02T13:03:51.029Z,99546.91
2023-02-02T13:10:48.155Z,99552.56
2023-02-02T13:14:03.727Z,99548.22
2023-02-02T13:17:18.279Z,99548.34
2023-02-02T13:20:37.865Z,99570.69
2023-02-02T13:23:51.879Z,99574.06
2023-02-02T13:27:05.811Z,99581.72
2023-02-02T13:30:28.796Z,99582.59
2023-02-02T13:33:39.868Z,99587.94
2023-02-02T13:36:55.492Z,99583.72
2023-02-02T13:40:16.925Z,99572.63
2023-02-02T13:43:35.421Z,99577.63
2023-02-02T13:46:53.747Z,99577.06
2023-02-02T13:50:12.117Z,99569.34
2023-02-02T13:53:42.047Z,99584.69
2023-02-02T13:56:59.323Z,99585.59
2023-02-02T14:00:16.583Z,99582.56
2023-02-02T14:03:38.184Z,99592.00
2023-02-02T14:06:56.966Z,99595.78
2023-02-02T14:10:08.168Z,99599.97
2023-02-02T14:13:33.013Z,99600.53
2023-02-02T14:16:47.575Z,99599.50
2023-02-02T14:19:59.854Z,99603.41
2023-02-02T14:23:39.178Z,99610.66
2023-02-02T14:26:51.327Z,99608.72
2023-02-02T14:30:01.708Z,99612.56
2023-02-02T14:33:26.218Z,99619.28
2023-02-02T14:36:39.894Z,99626.53
2023-02-02T14:39:57.687Z,99625.03
2023-02-02T14:43:29.716Z,99641.91
2023-02-02T14:46:40.928Z,99643.47
2023-02-02T14:49:51.333Z,99638.63
2023-02-02T14:53:06.198Z,99646.13
2023-02-02T14:56:17.487Z,99655.31
2023-02-02T14:59:31.891Z,99652.47
2023-02-02T15:02:41.603Z,99654.44
2023-02-02T15:06:03.731Z,99659.09
2023-02-02T15:09:29.175Z,99656.69
2023-02-02T15:12:45.668Z,99666.00
2023-02-02T15:16:07.484Z,99663.34
2023-02-02T15:19:25.838Z,99666.28
2023-02-02T15:22:42.345Z,99664.22
2023-02-02T15:25:58.634Z,99663.63
2023-02-02T15:29:17.194Z,99675.09
2023-02-02T15:32:28.344Z,99685.00
2023-02-02T15:35:38.369Z,99681.72
2023-02-02T15:38:50.742Z,99686.81
2023-02-02T15:42:17.053Z,99687.88
2023-02-02T15:45:33.324Z,99694.84
2023-02-02T15:48:43.881Z,99705.19
2023-02-02T15:51:55.844Z,99712.28
2023-02-02T15:55:21.040Z,99733.53
2023-02-02T15:58:34.312Z,99730.66
2023-02-02T16:01:48.376Z,99745.56
2023-02-02T16:04:58.178Z,99741.97
2023-02-02T16:08:13.822Z,99758.50
2023-02-02T16:11:24.874Z,99768.75
2023-02-02T16:14:40.370Z,99769.94
2023-02-02T16:18:00.171Z,99771.75
2023-02-02T16:21:17.878Z,99766.19
2023-02-02T16:24:31.533Z,99772.97
2023-02-02T16:27:48.593Z,99772.47
2023-02-02T16:31:02.566Z,99783.88
2023-02-02T16:34:16.976Z,99790.22
2023-02-02T16:37:32.627Z,99789.13
2023-02-02T16:40:43.022Z,99791.41
2023-02-02T16:43:53.293Z,99786.91
2023-02-02T16:47:06.858Z,99781.00
2023-02-02T16:50:29.934Z,99796.66
2023-02-02T16:53:39.874Z,99806.56
2023-02-02T16:56:52.942Z,99810.91
2023-02-02T17:00:06.908Z,99810.13
2023-02-02T17:03:19.056Z,99804.38
2023-02-02T17:06:41.637Z,99805.56
2023-02-02T17:10:15.028Z,99811.34
2023-02-02T17:13:40.118Z,99802.47
2023-02-02T17:16:49.847Z,99803.06
2023-02-02T17:20:03.133Z,99818.41
2023-02-02T17:23:19.038Z,99811.50
2023-02-02T17:26:29.001Z,99815.00
2023-02-02T17:29:38.763Z,99823.44
2023-02-02T17:32:48.759Z,99844.72
2023-02-02T17:36:00.246Z,99840.22
2023-02-02T17:39:11.693Z,99842.63
2023-02-02T17:42:25.500Z,99842.28
2023-02-02T17:45:38.444Z,99850.63
2023-02-02T17:48:48.055Z,99853.28
2023-02-02T17:51:58.956Z,99859.38
2023-02-02T17:55:14.865Z,99857.53
2023-02-02T17:58:24.547Z,99851.81
2023-02-02T18:01:37.638Z,99856.63
2023-02-02T18:04:48.753Z,99860.84
2023-02-02T18:07:59.585Z,99849.97
2023-02-02T18:11:13.511Z,99849.16
2023-02-02T18:14:23.117Z,99858.09
2023-02-02T18:17:34.152Z,99860.28
2023-02-02T18:20:44.267Z,99866.47
2023-02-02T18:23:55.122Z,99863.19
2023-02-02T18:27:04.951Z,99865.88
2023-02-02T18:30:15.362Z,99877.53
2023-02-02T18:33:28.196Z,99868.81
2023-02-02T18:36:40.250Z,99868.47
2023-02-02T18:39:51.839Z,99866.66
2023-02-02T18:43:01.461Z,99862.72
2023-02-02T18:46:13.770Z,99857.84
2023-02-02T18:49:24.088Z,99843.47
2023-02-02T18:52:33.859Z,99852.50
2023-02-02T18:55:44.867Z,99853.50
2023-02-02T18:58:54.761Z,99850.94
2023-02-02T19:02:04.390Z,99852.16
2023-02-02T19:05:25.828Z,99854.66
2023-02-02T19:08:35.863Z,99859.91
2023-02-02T19:11:49.176Z,99867.91
2023-02-02T19:14:58.725Z,99861.88
2023-02-02T19:18:14.612Z,99865.84
2023-02-02T19:21:24.352Z,99865.56
2023-02-02T19:24:38.391Z,99867.63
2023-02-02T19:27:49.262Z,99862.22
2023-02-02T19:31:00.964Z,99874.00
2023-02-02T19:34:13.585Z,99862.72
2023-02-02T19:37:25.624Z,99877.13
2023-02-02T19:40:35.381Z,99872.44
2023-02-02T19:43:47.739Z,99875.38
2023-02-02T19:46:57.991Z,99870.28
2023-02-02T19:50:16.287Z,99859.22
2023-02-02T19:53:28.736Z,99857.41
2023-02-02T19:56:40.228Z,99853.72
2023-02-02T19:59:53.329Z,99852.16
2023-02-02T20:03:07.595Z,99854.00
2023-02-02T20:06:23.304Z,99860.47
2023-02-02T20:09:35.617Z,99864.38
2023-02-02T20:12:45.670Z,99857.72
2023-02-02T20:16:03.593Z,99862.72
2023-02-02T20:19:17.688Z,99875.63
2023-02-02T20:22:30.264Z,99883.28
2023-02-02T20:25:39.855Z,99884.03
2023-02-02T20:28:51.067Z,99872.94
2023-02-02T20:32:06.091Z,99879.84
2023-02-02T20:35:24.831Z,99873.75
2023-02-02T20:38:39.083Z,99872.25
2023-02-02T20:41:48.946Z,99865.78
